createdAt,value
2022-12-04T00:00:25.490Z,12.20
2022-12-04T00:03:13.604Z,12.00
2022-12-04T00:06:15.147Z,12.20
2022-12-04T00:09:03.743Z,12.00
2022-12-04T00:11:51.190Z,12.20
2022-12-04T00:15:00.755Z,12.20
2022-12-04T00:17:49.402Z,12.40
2022-12-04T00:20:40.625Z,12.00
2022-12-04T00:23:28.069Z,12.00
2022-12-04T00:26:20.818Z,12.10
2022-12-04T00:29:08.400Z,11.80
2022-12-04T00:31:56.325Z,11.60
2022-12-04T00:34:43.989Z,11.90
2022-12-04T00:37:33.565Z,12.10
2022-12-04T00:40:21.005Z,12.10
2022-12-04T00:43:08.405Z,11.90
2022-12-04T00:45:56.530Z,11.60
2022-12-04T00:48:44.801Z,12.10
2022-12-04T00:51:32.297Z,11.90
2022-12-04T00:54:19.725Z,12.20
2022-12-04T00:57:07.274Z,12.60
2022-12-04T00:59:55.053Z,12.50
2022-12-04T01:02:42.792Z,12.20
2022-12-04T01:05:30.811Z,12.30
2022-12-04T01:08:18.326Z,12.20
2022-12-04T01:11:07.008Z,12.20
2022-12-04T01:13:55.893Z,12.30
2022-12-04T01:16:43.534Z,12.10
2022-12-04T01:19:31.154Z,12.20
2022-12-04T01:22:18.610Z,12.40
2022-12-04T01:25:07.374Z,12.20
2022-12-04T01:27:54.865Z,12.30
2022-12-04T01:30:42.335Z,12.50
2022-12-04T01:33:31.680Z,12.30
2022-12-04T01:36:25.693Z,12.40
2022-12-04T01:39:13.266Z,12.80
2022-12-04T01:42:00.756Z,12.70
2022-12-04T01:45:43.449Z,12.90
2022-12-04T01:48:37.774Z,13.00
2022-12-04T01:51:37.279Z,12.80
2022-12-04T01:54:42.444Z,12.60
2022-12-04T01:57:33.202Z,12.50
2022-12-04T02:00:21.006Z,12.60
2022-12-04T02:03:08.730Z,12.90
2022-12-04T02:05:56.385Z,12.80
2022-12-04T02:08:43.914Z,12.90
2022-12-04T02:11:58.005Z,13.00
2022-12-04T02:15:13.609Z,12.60
2022-12-04T02:18:12.849Z,12.60
2022-12-04T02:21:26.969Z,12.50
2022-12-04T02:24:23.341Z,12.50
2022-12-04T02:27:50.910Z,12.40
2022-12-04T02:30:42.803Z,12.40
2022-12-04T02:33:47.276Z,12.20
2022-12-04T02:36:50.209Z,12.20
2022-12-04T02:39:51.315Z,12.40
2022-12-04T02:42:48.950Z,12.90
2022-12-04T02:45:51.632Z,12.80
2022-12-04T02:48:44.619Z,12.60
2022-12-04T02:51:37.785Z,12.90
2022-12-04T02:54:39.706Z,13.20
2022-12-04T02:57:36.080Z,13.20
2022-12-04T03:00:23.915Z,13.40
2022-12-04T03:03:29.757Z,13.60
2022-12-04T03:06:22.343Z,13.40
2022-12-04T03:09:46.881Z,13.80
2022-12-04T03:12:52.474Z,13.70
2022-12-04T03:16:02.234Z,13.40
2022-12-04T03:19:18.524Z,13.10
2022-12-04T03:22:15.003Z,13.10
2022-12-04T03:25:04.840Z,12.80
2022-12-04T03:27:54.985Z,13.10
2022-12-04T03:30:58.153Z,13.20
2022-12-04T03:33:48.474Z,13.20
2022-12-04T03:36:52.479Z,13.40
2022-12-04T03:39:57.310Z,13.20
2022-12-04T03:43:20.321Z,13.00
2022-12-04T03:46:43.650Z,12.70
2022-12-04T03:50:00.268Z,12.40
2022-12-04T03:53:17.089Z,13.00
2022-12-04T03:56:23.618Z,12.90
2022-12-04T03:59:27.547Z,12.80
2022-12-04T04:02:21.240Z,12.80
2022-12-04T04:05:13.169Z,12.70
2022-12-04T04:08:26.486Z,12.20
2022-12-04T04:11:31.764Z,12.40
2022-12-04T04:14:57.616Z,12.60
2022-12-04T04:17:48.894Z,12.40
2022-12-04T04:21:17.845Z,12.60
2022-12-04T04:24:17.160Z,12.70
2022-12-04T04:27:05.664Z,12.50
2022-12-04T04:29:53.199Z,12.80
2022-12-04T04:32:59.082Z,13.30
2022-12-04T04:36:03.393Z,13.00
2022-12-04T04:39:32.038Z,12.70
2022-12-04T04:43:09.913Z,12.70
2022-12-04T04:46:17.429Z,12.50
2022-12-04T04:49:11.211Z,12.80
2022-12-04T04:52:00.068Z,12.80
2022-12-04T04:54:48.134Z,13.00
2022-12-04T04:57:37.019Z,12.90
2022-12-04T05:00:24.845Z,13.40
2022-12-04T05:03:12.277Z,13.20
2022-12-04T05:05:59.921Z,13.50
2022-12-04T05:08:49.354Z,13.30
2022-12-04T05:11:36.849Z,13.40
2022-12-04T05:14:24.294Z,12.90
2022-12-04T05:17:12.901Z,13.10
2022-12-04T05:20:00.831Z,12.60
2022-12-04T05:22:48.588Z,12.50
2022-12-04T05:25:36.034Z,12.40
2022-12-04T05:28:23.506Z,12.30
2022-12-04T05:31:10.988Z,12.40
2022-12-04T05:33:58.540Z,12.60
2022-12-04T05:36:46.120Z,12.60
2022-12-04T05:39:35.680Z,12.80
2022-12-04T05:42:23.364Z,12.50
2022-12-04T05:45:11.584Z,12.10
2022-12-04T05:47:59.001Z,12.40
2022-12-04T05:50:46.578Z,13.00
2022-12-04T05:53:34.229Z,12.90
2022-12-04T05:56:22.290Z,13.40
2022-12-04T05:59:09.748Z,12.90
2022-12-04T06:01:57.341Z,13.30
2022-12-04T06:04:45.000Z,13.20
2022-12-04T06:07:32.590Z,13.20
2022-12-04T06:10:20.061Z,13.20
2022-12-04T06:13:08.068Z,12.50
2022-12-04T06:15:55.594Z,12.30
2022-12-04T06:18:43.447Z,12.60
2022-12-04T06:21:36.593Z,12.80
2022-12-04T06:24:25.543Z,12.50
2022-12-04T06:27:28.948Z,12.70
2022-12-04T06:30:16.736Z,12.60
2022-12-04T06:33:04.169Z,13.10
2022-12-04T06:36:05.061Z,13.10
2022-12-04T06:38:56.234Z,13.40
2022-12-04T06:41:43.800Z,12.90
2022-12-04T06:44:31.329Z,13.00
2022-12-04T06:47:19.412Z,13.40
2022-12-04T06:50:08.131Z,13.10
2022-12-04T06:52:55.561Z,13.10
2022-12-04T06:55:48.961Z,13.40
2022-12-04T06:58:36.794Z,13.20
2022-12-04T07:01:28.069Z,13.60
2022-12-04T07:04:15.659Z,13.10
2022-12-04T07:07:03.096Z,13.80
2022-12-04T07:09:50.564Z,14.00
2022-12-04T07:12:37.955Z,13.50
2022-12-04T07:15:25.720Z,13.00
2022-12-04T07:18:13.165Z,13.30
2022-12-04T07:21:04.289Z,13.00
2022-12-04T07:23:56.164Z,13.00
2022-12-04T07:26:44.278Z,12.90
2022-12-04T07:29:31.794Z,13.60
2022-12-04T07:32:19.360Z,13.30
2022-12-04T07:35:07.146Z,13.40
2022-12-04T07:37:54.624Z,13.40
2022-12-04T07:40:42.135Z,13.40
2022-12-04T07:43:33.969Z,13.70
2022-12-04T07:46:28.241Z,13.70
2022-12-04T07:49:16.485Z,13.30
2022-12-04T07:52:04.621Z,13.60
2022-12-04T07:54:52.050Z,13.20
2022-12-04T07:57:39.520Z,13.90
2022-12-04T08:00:27.156Z,13.90
2022-12-04T08:03:14.617Z,13.80
2022-12-04T08:06:03.811Z,13.60
2022-12-04T08:08:52.584Z,13.90
2022-12-04T08:11:40.165Z,14.10
2022-12-04T08:14:27.615Z,14.10
2022-12-04T08:17:15.078Z,14.40
2022-12-04T08:20:02.600Z,14.70
2022-12-04T08:22:50.065Z,14.40
2022-12-04T08:25:41.834Z,14.60
2022-12-04T08:28:29.920Z,14.10
2022-12-04T08:31:24.594Z,14.30
2022-12-04T08:34:12.142Z,14.60
2022-12-04T08:36:59.664Z,14.40
2022-12-04T08:39:47.192Z,14.40
2022-12-04T08:42:34.746Z,14.40
2022-12-04T08:45:22.251Z,14.40
2022-12-04T08:48:09.865Z,14.30
2022-12-04T08:50:58.046Z,15.00
2022-12-04T08:53:46.565Z,15.70
2022-12-04T08:56:37.610Z,15.20
2022-12-04T08:59:25.086Z,15.60
2022-12-04T09:02:13.384Z,15.30
2022-12-04T09:05:01.045Z,15.40
2022-12-04T09:07:48.544Z,15.40
2022-12-04T09:10:37.381Z,16.40
2022-12-04T09:13:24.835Z,15.40
2022-12-04T09:16:16.810Z,15.30
2022-12-04T09:19:04.465Z,15.40
2022-12-04T09:21:51.944Z,15.40
2022-12-04T09:24:39.450Z,15.40
2022-12-04T09:27:27.549Z,15.50
2022-12-04T09:30:15.288Z,15.50
2022-12-04T09:33:02.870Z,15.50
2022-12-04T09:35:50.318Z,15.60
2022-12-04T09:38:37.739Z,15.80
2022-12-04T09:41:40.267Z,15.30
2022-12-04T09:44:51.875Z,15.50
2022-12-04T09:47:47.752Z,15.20
2022-12-04T09:50:42.930Z,15.00
2022-12-04T09:54:10.924Z,15.10
2022-12-04T09:57:31.560Z,14.70
2022-12-04T10:00:21.301Z,14.70
2022-12-04T10:03:18.651Z,14.90
2022-12-04T10:06:28.878Z,14.80
2022-12-04T10:09:40.962Z,15.20
2022-12-04T10:13:17.755Z,15.60
2022-12-04T10:16:33.692Z,15.00
2022-12-04T10:19:32.656Z,15.40
2022-12-04T10:22:58.279Z,15.10
2022-12-04T10:25:45.709Z,14.90
2022-12-04T10:28:54.827Z,15.50
2022-12-04T10:31:47.043Z,15.70
2022-12-04T10:34:35.163Z,15.40
2022-12-04T10:37:24.515Z,15.30
2022-12-04T10:40:25.935Z,15.50
2022-12-04T10:43:45.144Z,15.60
2022-12-04T10:46:35.499Z,15.70
2022-12-04T10:49:41.747Z,15.40
2022-12-04T10:52:29.207Z,15.60
2022-12-04T10:55:28.339Z,15.40
2022-12-04T10:58:18.486Z,15.60
2022-12-04T11:01:14.583Z,15.70
2022-12-04T11:04:26.674Z,16.00
2022-12-04T11:07:24.472Z,15.90
2022-12-04T11:10:39.629Z,15.60
2022-12-04T11:13:27.300Z,16.00
2022-12-04T11:16:39.743Z,15.70
2022-12-04T11:19:36.498Z,15.60
2022-12-04T11:22:24.050Z,15.80
2022-12-04T11:25:19.922Z,15.60
2022-12-04T11:28:39.899Z,16.00
2022-12-04T11:31:24.330Z,15.60
2022-12-04T11:34:22.615Z,16.10
2022-12-04T11:37:25.458Z,16.00
2022-12-04T11:40:20.384Z,16.30
2022-12-04T11:43:10.789Z,15.90
2022-12-04T11:46:06.743Z,15.80
2022-12-04T11:48:54.739Z,15.50
2022-12-04T11:51:57.012Z,15.80
2022-12-04T11:55:17.590Z,15.40
2022-12-04T11:58:25.724Z,15.00
2022-12-04T12:01:57.941Z,15.50
2022-12-04T12:05:23.599Z,15.50
2022-12-04T12:08:37.291Z,15.10
2022-12-04T12:11:32.216Z,15.00
2022-12-04T12:15:26.249Z,15.80
2022-12-04T12:18:54.699Z,15.90
2022-12-04T12:22:33.590Z,15.60
2022-12-04T12:25:54.220Z,15.70
2022-12-04T12:29:37.215Z,16.30
2022-12-04T12:33:04.821Z,16.00
2022-12-04T12:36:09.931Z,16.20
2022-12-04T12:39:14.252Z,15.60
2022-12-04T12:42:02.264Z,16.20
2022-12-04T12:45:06.700Z,16.00
2022-12-04T12:48:02.159Z,16.10
2022-12-04T12:51:33.762Z,15.90
2022-12-04T12:54:31.455Z,15.50
2022-12-04T12:57:25.627Z,15.40
2022-12-04T13:00:24.555Z,15.50
2022-12-04T13:03:41.730Z,15.10
2022-12-04T13:06:42.929Z,14.60
2022-12-04T13:09:37.716Z,14.70
2022-12-04T13:12:26.876Z,15.00
2022-12-04T13:15:20.401Z,14.60
2022-12-04T13:18:17.859Z,14.80
2022-12-04T13:21:08.101Z,14.90
2022-12-04T13:24:27.500Z,15.00
2022-12-04T13:27:32.705Z,14.80
2022-12-04T13:30:44.600Z,14.10
2022-12-04T13:34:16.456Z,13.90
2022-12-04T13:37:39.035Z,14.40
2022-12-04T13:40:42.829Z,15.00
2022-12-04T13:43:42.526Z,15.00
2022-12-04T13:46:42.062Z,15.10
2022-12-04T13:49:36.681Z,14.50
2022-12-04T13:52:40.900Z,14.70
2022-12-04T13:55:40.455Z,14.00
2022-12-04T13:58:32.978Z,14.30
2022-12-04T14:01:31.422Z,13.60
2022-12-04T14:04:56.407Z,14.40
2022-12-04T14:08:07.164Z,14.50
2022-12-04T14:11:13.265Z,14.10
2022-12-04T14:14:07.759Z,14.70
2022-12-04T14:16:59.295Z,14.20
2022-12-04T14:19:59.928Z,14.20
2022-12-04T14:22:51.121Z,14.30
2022-12-04T14:25:40.564Z,13.70
2022-12-04T14:28:41.637Z,13.70
2022-12-04T14:31:40.149Z,13.80
2022-12-04T14:34:34.650Z,13.90
2022-12-04T14:37:40.924Z,14.40
2022-12-04T14:40:43.679Z,14.50
2022-12-04T14:43:40.822Z,14.60
2022-12-04T14:46:51.820Z,14.40
2022-12-04T14:50:12.225Z,14.00
2022-12-04T14:53:36.081Z,13.90
2022-12-04T14:56:48.010Z,13.80
2022-12-04T14:59:49.289Z,13.70
2022-12-04T15:02:42.985Z,13.70
2022-12-04T15:05:32.509Z,13.80
2022-12-04T15:08:21.764Z,12.90
2022-12-04T15:11:39.341Z,13.20
2022-12-04T15:14:26.741Z,13.00
2022-12-04T15:17:17.431Z,13.10
2022-12-04T15:20:12.189Z,13.30
2022-12-04T15:23:02.160Z,13.30
2022-12-04T15:26:03.668Z,13.70
2022-12-04T15:28:58.751Z,13.70
2022-12-04T15:31:56.877Z,13.00
2022-12-04T15:34:54.864Z,12.50
2022-12-04T15:37:42.805Z,12.50
2022-12-04T15:40:31.290Z,12.80
2022-12-04T15:43:30.635Z,12.80
2022-12-04T15:46:34.931Z,12.90
2022-12-04T15:49:28.496Z,12.50
2022-12-04T15:52:20.500Z,12.90
2022-12-04T15:55:09.563Z,12.70
2022-12-04T15:58:07.974Z,12.70
2022-12-04T16:01:00.081Z,12.20
2022-12-04T16:04:00.347Z,12.40
2022-12-04T16:06:52.743Z,12.60
2022-12-04T16:10:03.627Z,12.40
2022-12-04T16:12:58.616Z,12.20
2022-12-04T16:15:46.167Z,12.40
2022-12-04T16:18:34.054Z,12.60
2022-12-04T16:21:29.739Z,12.30
2022-12-04T16:24:17.553Z,11.90
2022-12-04T16:27:16.240Z,12.10
2022-12-04T16:30:04.712Z,12.00
2022-12-04T16:32:54.196Z,11.90
2022-12-04T16:35:42.179Z,12.00
2022-12-04T16:38:29.754Z,11.90
2022-12-04T16:41:19.506Z,12.20
2022-12-04T16:44:15.279Z,11.90
2022-12-04T16:47:02.762Z,12.10
2022-12-04T16:49:52.600Z,11.90
2022-12-04T16:52:40.344Z,11.70
2022-12-04T16:55:40.160Z,11.60
2022-12-04T16:58:27.577Z,11.50
2022-12-04T17:01:28.522Z,11.50
2022-12-04T17:04:18.287Z,11.70
2022-12-04T17:07:05.820Z,11.80
2022-12-04T17:09:53.341Z,11.30
2022-12-04T17:12:42.555Z,11.40
2022-12-04T17:15:30.014Z,11.60
2022-12-04T17:18:21.064Z,11.50
2022-12-04T17:21:12.010Z,11.20
2022-12-04T17:23:59.537Z,11.40
2022-12-04T17:26:46.920Z,11.20
2022-12-04T17:29:34.468Z,11.40
2022-12-04T17:32:22.657Z,11.30
2022-12-04T17:35:13.492Z,11.80
2022-12-04T17:38:05.866Z,11.00
2022-12-04T17:41:04.735Z,11.20
2022-12-04T17:43:52.260Z,11.10
2022-12-04T17:46:39.824Z,10.90
2022-12-04T17:49:27.510Z,11.40
2022-12-04T17:52:15.343Z,11.30
2022-12-04T17:55:03.674Z,11.30
2022-12-04T17:57:51.205Z,11.20
2022-12-04T18:00:38.769Z,11.30
2022-12-04T18:03:26.444Z,11.50
2022-12-04T18:06:18.915Z,11.30
2022-12-04T18:09:09.080Z,11.60
2022-12-04T18:11:58.612Z,11.10
2022-12-04T18:14:46.104Z,11.60
2022-12-04T18:17:33.544Z,11.40
2022-12-04T18:20:23.879Z,11.50
2022-12-04T18:23:11.350Z,11.30
2022-12-04T18:26:01.515Z,11.40
2022-12-04T18:28:50.186Z,11.60
2022-12-04T18:31:37.797Z,11.20
2022-12-04T18:34:25.455Z,11.30
2022-12-04T18:37:12.899Z,11.20
2022-12-04T18:40:06.087Z,11.30
2022-12-04T18:42:54.263Z,11.40
2022-12-04T18:45:44.815Z,11.70
2022-12-04T18:48:33.124Z,11.20
2022-12-04T18:51:45.739Z,11.20
2022-12-04T18:54:36.290Z,11.30
2022-12-04T18:57:23.820Z,11.40
2022-12-04T19:00:11.927Z,11.40
2022-12-04T19:02:59.390Z,11.20
2022-12-04T19:05:51.305Z,11.50
2022-12-04T19:08:43.231Z,11.60
2022-12-04T19:11:31.967Z,11.60
2022-12-04T19:14:23.535Z,11.70
2022-12-04T19:17:11.816Z,11.50
2022-12-04T19:19:59.701Z,11.70
2022-12-04T19:22:47.225Z,11.30
2022-12-04T19:25:35.023Z,11.70
2022-12-04T19:28:22.995Z,11.40
2022-12-04T19:31:24.448Z,11.80
2022-12-04T19:34:11.990Z,11.60
2022-12-04T19:36:59.522Z,11.50
2022-12-04T19:39:46.953Z,12.00
2022-12-04T19:42:34.547Z,11.70
2022-12-04T19:45:22.034Z,11.90
2022-12-04T19:48:09.606Z,12.00
2022-12-04T19:51:06.154Z,11.90
2022-12-04T19:53:55.271Z,12.30
2022-12-04T19:56:46.200Z,12.50
2022-12-04T19:59:37.721Z,12.40
2022-12-04T20:02:27.340Z,12.00
2022-12-04T20:05:14.920Z,12.30
2022-12-04T20:10:48.780Z,12.20
2022-12-04T20:13:36.805Z,12.30
2022-12-04T20:16:27.845Z,12.40
2022-12-04T20:19:18.460Z,12.30
2022-12-04T20:22:06.101Z,11.70
2022-12-04T20:24:53.559Z,11.80
2022-12-04T20:27:41.094Z,12.40
2022-12-04T20:30:29.017Z,12.30
2022-12-04T20:33:16.816Z,12.10
2022-12-04T20:36:04.585Z,12.00
2022-12-04T20:38:58.380Z,12.00
2022-12-04T20:41:46.493Z,11.90
2022-12-04T20:44:34.124Z,12.00
2022-12-04T20:47:22.235Z,12.00
2022-12-04T20:50:10.471Z,12.30
2022-12-04T20:52:57.927Z,12.50
2022-12-04T20:55:56.597Z,12.60
2022-12-04T20:58:44.688Z,13.10
2022-12-04T21:01:33.616Z,13.00
2022-12-04T21:04:22.167Z,13.00
2022-12-04T21:07:09.649Z,13.40
2022-12-04T21:09:59.537Z,13.50
2022-12-04T21:13:06.106Z,13.20
2022-12-04T21:16:03.636Z,13.60
2022-12-04T21:18:51.070Z,13.40
2022-12-04T21:21:39.099Z,13.50
2022-12-04T21:24:28.768Z,13.50
2022-12-04T21:27:21.030Z,13.80
2022-12-04T21:30:09.783Z,13.60
2022-12-04T21:32:57.275Z,13.60
2022-12-04T21:35:44.769Z,13.90
2022-12-04T21:38:39.515Z,13.50
2022-12-04T21:41:46.210Z,13.30
2022-12-04T21:44:34.217Z,12.80
2022-12-04T21:47:21.760Z,12.80
2022-12-04T21:50:09.669Z,12.80
2022-12-04T21:52:57.214Z,12.80
2022-12-04T21:55:54.095Z,12.80
2022-12-04T21:58:41.695Z,12.70
2022-12-04T22:01:29.599Z,12.80
2022-12-04T22:04:17.515Z,12.10
2022-12-04T22:07:05.035Z,12.80
2022-12-04T22:09:52.496Z,12.20
2022-12-04T22:12:49.656Z,12.90
2022-12-04T22:15:44.752Z,12.30
2022-12-04T22:18:33.684Z,12.50
2022-12-04T22:21:21.637Z,12.60
2022-12-04T22:24:10.729Z,12.60
2022-12-04T22:26:58.185Z,12.50
2022-12-04T22:29:50.657Z,12.40
2022-12-04T22:32:38.450Z,12.30
2022-12-04T22:35:25.894Z,12.20
2022-12-04T22:38:13.285Z,12.10
2022-12-04T22:41:04.169Z,11.90
2022-12-04T22:43:51.755Z,11.80
2022-12-04T22:46:39.330Z,11.70
2022-12-04T22:49:26.789Z,11.60
2022-12-04T22:52:14.309Z,11.40
2022-12-04T22:55:02.024Z,11.40
2022-12-04T22:57:49.463Z,11.30
2022-12-04T23:00:36.954Z,11.20
2022-12-04T23:03:24.436Z,11.20
2022-12-04T23:06:13.125Z,11.20
2022-12-04T23:09:12.611Z,11.20
2022-12-04T23:12:00.134Z,11.10
2022-12-04T23:14:47.679Z,11.10
2022-12-04T23:17:35.275Z,11.00
2022-12-04T23:20:22.704Z,11.00
2022-12-04T23:23:10.310Z,11.00
2022-12-04T23:25:57.751Z,10.90
2022-12-04T23:28:46.216Z,10.90
2022-12-04T23:31:34.675Z,10.90
2022-12-04T23:34:22.303Z,10.80
2022-12-04T23:37:09.777Z,10.70
2022-12-04T23:39:57.467Z,10.60
2022-12-04T23:42:45.146Z,10.60
2022-12-04T23:45:32.639Z,10.50
2022-12-04T23:48:20.205Z,10.50
2022-12-04T23:51:09.860Z,10.50
2022-12-04T23:53:57.377Z,10.40
2022-12-04T23:56:44.884Z,10.40
2022-12-04T23:59:32.371Z,10.40
